createdAt,value
2019-05-07T00:01:56.317Z,8.73
2019-05-07T00:04:25.400Z,7.70
2019-05-07T00:06:57.788Z,9.17
2019-05-07T00:09:26.906Z,10.17
2019-05-07T00:11:55.966Z,8.30
2019-05-07T00:14:24.998Z,8.60
2019-05-07T00:16:54.096Z,8.57
2019-05-07T00:19:24.996Z,8.60
2019-05-07T00:21:54.199Z,9.17
2019-05-07T00:24:23.273Z,8.90
2019-05-07T00:26:53.247Z,8.80
2019-05-07T00:29:22.597Z,7.80
2019-05-07T00:31:53.617Z,8.47
2019-05-07T00:34:29.862Z,8.97
2019-05-07T00:37:13.105Z,9.20
2019-05-07T00:40:16.931Z,8.23
2019-05-07T00:43:05.179Z,9.83
2019-05-07T00:45:46.146Z,8.00
2019-05-07T00:48:19.655Z,8.00
2019-05-07T00:50:52.693Z,8.40
2019-05-07T00:53:24.466Z,8.70
2019-05-07T00:55:56.220Z,8.10
2019-05-07T00:58:27.484Z,7.17
2019-05-07T01:00:58.154Z,7.80
2019-05-07T01:03:27.435Z,7.50
2019-05-07T01:05:56.544Z,8.40
2019-05-07T01:08:25.626Z,7.93
2019-05-07T01:10:57.756Z,7.60
2019-05-07T01:13:32.325Z,8.77
2019-05-07T01:16:05.981Z,9.10
2019-05-07T01:18:36.107Z,7.90
2019-05-07T01:21:07.782Z,7.37
2019-05-07T01:23:36.860Z,7.77
2019-05-07T01:26:07.303Z,8.53
2019-05-07T01:28:54.510Z,7.60
2019-05-07T01:31:24.928Z,7.83
2019-05-07T01:34:02.566Z,7.70
2019-05-07T01:36:34.321Z,7.63
2019-05-07T01:39:03.753Z,8.10
2019-05-07T01:41:32.863Z,7.83
2019-05-07T01:44:06.340Z,6.77
2019-05-07T01:46:35.380Z,7.00
2019-05-07T01:49:04.479Z,7.93
2019-05-07T01:51:34.638Z,7.70
2019-05-07T01:54:04.908Z,8.27
2019-05-07T01:56:42.613Z,7.40
2019-05-07T01:59:13.625Z,6.90
2019-05-07T02:01:43.158Z,7.00
2019-05-07T02:04:29.939Z,7.40
2019-05-07T02:07:17.078Z,7.00
2019-05-07T02:09:55.203Z,7.20
2019-05-07T02:12:31.930Z,6.70
2019-05-07T02:15:02.703Z,7.53
2019-05-07T02:17:32.305Z,6.50
2019-05-07T02:20:05.625Z,8.47
2019-05-07T02:22:37.189Z,6.20
2019-05-07T02:25:09.989Z,7.30
2019-05-07T02:27:42.293Z,7.50
2019-05-07T02:30:14.715Z,6.70
2019-05-07T02:32:43.328Z,7.10
2019-05-07T02:35:13.658Z,6.40
2019-05-07T02:37:56.195Z,6.43
2019-05-07T02:40:48.719Z,7.33
2019-05-07T02:43:17.768Z,8.37
2019-05-07T02:46:20.645Z,5.93
2019-05-07T02:48:49.006Z,6.40
2019-05-07T02:51:26.635Z,6.30
2019-05-07T02:54:08.189Z,6.33
2019-05-07T02:56:37.227Z,6.10
2019-05-07T02:59:06.484Z,5.93
2019-05-07T03:01:37.309Z,5.73
2019-05-07T03:04:07.542Z,5.57
2019-05-07T03:06:43.984Z,5.50
2019-05-07T03:09:14.488Z,5.50
2019-05-07T03:11:43.801Z,6.10
2019-05-07T03:14:16.297Z,6.53
2019-05-07T03:16:49.637Z,6.73
2019-05-07T03:19:19.970Z,6.33
2019-05-07T03:21:56.159Z,6.87
2019-05-07T03:24:56.696Z,6.50
2019-05-07T03:27:44.676Z,6.13
2019-05-07T03:30:45.028Z,6.40
2019-05-07T03:33:29.122Z,6.87
2019-05-07T03:35:58.973Z,7.00
2019-05-07T03:38:28.042Z,6.50
2019-05-07T03:40:57.109Z,6.70
2019-05-07T03:43:27.234Z,7.17
2019-05-07T03:46:17.000Z,6.63
2019-05-07T03:48:53.149Z,7.53
2019-05-07T03:51:23.722Z,8.17
2019-05-07T03:53:54.763Z,7.97
2019-05-07T03:56:27.774Z,8.30
2019-05-07T03:58:56.815Z,7.80
2019-05-07T04:01:25.888Z,7.90
2019-05-07T04:03:56.148Z,8.17
2019-05-07T04:06:29.646Z,8.10
2019-05-07T04:08:58.771Z,8.63
2019-05-07T04:11:27.852Z,8.17
2019-05-07T04:13:57.736Z,7.80
2019-05-07T04:16:27.275Z,9.80
2019-05-07T04:18:58.053Z,7.87
2019-05-07T04:21:27.136Z,8.00
2019-05-07T04:24:13.730Z,7.60
2019-05-07T04:26:45.981Z,7.27
2019-05-07T04:29:22.886Z,8.10
2019-05-07T04:31:53.243Z,7.87
2019-05-07T04:34:39.884Z,7.80
2019-05-07T04:37:08.933Z,7.50
2019-05-07T04:39:42.868Z,7.83
2019-05-07T04:42:13.386Z,8.10
2019-05-07T04:44:43.690Z,7.80
2019-05-07T04:47:13.399Z,5.97
2019-05-07T04:49:43.888Z,7.10
2019-05-07T04:52:19.048Z,7.77
2019-05-07T04:54:48.501Z,6.20
2019-05-07T04:57:26.977Z,7.30
2019-05-07T04:59:58.962Z,7.00
2019-05-07T05:02:47.506Z,6.77
2019-05-07T05:05:23.661Z,7.67
2019-05-07T05:07:56.527Z,8.33
2019-05-07T05:10:27.384Z,7.73
2019-05-07T05:12:56.461Z,7.13
2019-05-07T05:15:25.509Z,8.07
2019-05-07T05:17:54.562Z,8.50
2019-05-07T05:20:33.719Z,7.77
2019-05-07T05:23:33.994Z,7.40
2019-05-07T05:26:04.636Z,7.13
2019-05-07T05:28:33.755Z,8.50
2019-05-07T05:31:04.763Z,8.30
2019-05-07T05:33:36.757Z,7.63
2019-05-07T05:36:05.832Z,7.77
2019-05-07T05:38:35.244Z,7.67
2019-05-07T05:41:04.750Z,7.93
2019-05-07T05:43:46.891Z,7.73
2019-05-07T05:46:16.177Z,8.47
2019-05-07T05:48:48.293Z,7.90
2019-05-07T05:51:26.791Z,8.80
2019-05-07T05:54:14.791Z,7.40
2019-05-07T05:56:54.485Z,7.20
2019-05-07T05:59:55.589Z,7.17
2019-05-07T06:02:34.299Z,7.60
2019-05-07T06:05:22.349Z,6.80
2019-05-07T06:07:59.116Z,7.10
2019-05-07T06:10:53.722Z,7.53
2019-05-07T06:13:34.937Z,6.90
2019-05-07T06:16:13.194Z,7.60
2019-05-07T06:18:57.908Z,7.10
2019-05-07T06:21:47.903Z,6.77
2019-05-07T06:24:22.515Z,7.50
2019-05-07T06:27:09.236Z,6.87
2019-05-07T06:29:39.354Z,7.67
2019-05-07T06:32:12.134Z,7.10
2019-05-07T06:34:44.651Z,8.43
2019-05-07T06:37:12.964Z,8.03
2019-05-07T06:40:13.284Z,8.77
2019-05-07T06:42:55.337Z,8.00
2019-05-07T06:45:35.311Z,7.57
2019-05-07T06:48:03.572Z,8.70
2019-05-07T06:50:35.718Z,8.67
2019-05-07T06:53:07.614Z,7.93
2019-05-07T06:55:49.017Z,8.57
2019-05-07T06:58:18.455Z,8.70
2019-05-07T07:01:12.104Z,8.73
2019-05-07T07:04:02.619Z,8.17
2019-05-07T07:06:52.360Z,8.27
2019-05-07T07:09:27.621Z,7.50
2019-05-07T07:12:02.024Z,8.90
2019-05-07T07:14:33.178Z,7.40
2019-05-07T07:17:03.695Z,8.30
2019-05-07T07:19:35.991Z,8.97
2019-05-07T07:22:03.990Z,7.23
2019-05-07T07:24:33.111Z,8.00
2019-05-07T07:27:02.474Z,8.03
2019-05-07T07:29:36.332Z,8.00
2019-05-07T07:32:07.878Z,8.23
2019-05-07T07:34:43.145Z,8.10
2019-05-07T07:37:22.933Z,7.50
2019-05-07T07:40:09.511Z,7.90
2019-05-07T07:42:39.420Z,9.30
2019-05-07T07:45:16.950Z,8.97
2019-05-07T07:47:46.508Z,9.17
2019-05-07T07:50:17.182Z,7.20
2019-05-07T07:52:46.363Z,7.87
2019-05-07T07:55:17.483Z,7.20
2019-05-07T07:57:52.440Z,7.43
2019-05-07T08:00:52.534Z,8.40
2019-05-07T08:03:26.134Z,7.83
2019-05-07T08:05:54.623Z,6.77
2019-05-07T08:08:26.668Z,7.20
2019-05-07T08:10:55.851Z,7.20
2019-05-07T08:13:28.693Z,6.83
2019-05-07T08:16:02.909Z,7.47
2019-05-07T08:18:36.079Z,7.27
2019-05-07T08:21:07.998Z,7.53
2019-05-07T08:23:37.219Z,6.70
2019-05-07T08:26:06.298Z,6.40
2019-05-07T08:28:36.104Z,6.67
2019-05-07T08:31:27.323Z,7.10
2019-05-07T08:34:03.083Z,6.43
2019-05-07T08:36:33.199Z,6.10
2019-05-07T08:39:05.826Z,6.40
2019-05-07T08:41:35.875Z,6.07
2019-05-07T08:44:15.476Z,5.97
2019-05-07T08:47:02.797Z,5.77
2019-05-07T08:49:39.583Z,5.30
2019-05-07T08:52:04.820Z,5.10
2019-05-07T08:54:38.221Z,4.77
2019-05-07T08:57:08.995Z,6.63
2019-05-07T08:59:42.268Z,5.17
2019-05-07T09:02:13.024Z,4.97
2019-05-07T09:04:42.122Z,5.07
2019-05-07T09:07:13.031Z,4.97
2019-05-07T09:09:42.847Z,4.60
2019-05-07T09:12:12.652Z,4.47
2019-05-07T09:14:42.530Z,5.43
2019-05-07T09:17:14.491Z,5.07
2019-05-07T09:19:51.530Z,5.10
2019-05-07T09:22:18.493Z,4.60
2019-05-07T09:24:59.696Z,4.90
2019-05-07T09:27:48.896Z,4.57
2019-05-07T09:30:38.437Z,5.10
2019-05-07T09:33:16.908Z,5.43
2019-05-07T09:35:48.325Z,5.70
2019-05-07T09:38:25.342Z,5.90
2019-05-07T09:40:57.070Z,5.60
2019-05-07T09:43:26.298Z,6.27
2019-05-07T09:45:55.336Z,6.37
2019-05-07T09:48:26.107Z,7.00
2019-05-07T09:51:02.326Z,5.50
2019-05-07T09:53:32.884Z,5.43
2019-05-07T09:56:03.810Z,5.30
2019-05-07T09:58:39.936Z,5.27
2019-05-07T10:01:14.011Z,5.63
2019-05-07T10:03:43.607Z,5.27
2019-05-07T10:06:12.940Z,5.63
2019-05-07T10:08:47.456Z,6.20
2019-05-07T10:11:24.209Z,5.03
2019-05-07T10:14:01.491Z,4.80
2019-05-07T10:16:55.774Z,5.23
2019-05-07T10:19:25.113Z,5.30
2019-05-07T10:21:56.636Z,6.10
2019-05-07T10:24:26.110Z,5.50
2019-05-07T10:26:58.336Z,5.70
2019-05-07T10:29:32.254Z,6.00
2019-05-07T10:32:03.075Z,5.10
2019-05-07T10:34:32.175Z,5.70
2019-05-07T10:37:02.696Z,5.67
2019-05-07T10:39:32.586Z,7.10
2019-05-07T10:42:03.598Z,5.73
2019-05-07T10:44:43.177Z,6.13
2019-05-07T10:47:49.254Z,5.30
2019-05-07T10:50:35.557Z,6.63
2019-05-07T10:52:58.987Z,5.50
2019-05-07T10:55:32.739Z,5.80
2019-05-07T10:58:09.462Z,5.30
2019-05-07T11:00:39.120Z,5.33
2019-05-07T11:03:10.084Z,5.37
2019-05-07T11:05:39.258Z,4.97
2019-05-07T11:08:10.208Z,5.67
2019-05-07T11:10:39.386Z,6.00
2019-05-07T11:13:09.857Z,5.47
2019-05-07T11:15:39.755Z,5.43
2019-05-07T11:18:17.355Z,5.47
2019-05-07T11:20:50.328Z,4.87
2019-05-07T11:23:17.819Z,5.20
2019-05-07T11:25:52.632Z,6.00
2019-05-07T11:28:23.673Z,4.70
2019-05-07T11:30:58.604Z,4.80
2019-05-07T11:33:37.412Z,4.67
2019-05-07T11:36:16.993Z,5.00
2019-05-07T11:38:46.106Z,5.63
2019-05-07T11:41:15.226Z,5.20
2019-05-07T11:44:13.981Z,5.10
2019-05-07T11:47:12.317Z,5.17
2019-05-07T11:50:00.177Z,6.43
2019-05-07T11:52:38.463Z,6.17
2019-05-07T11:55:13.706Z,5.80
2019-05-07T11:57:45.770Z,5.57
2019-05-07T12:00:35.683Z,6.00
2019-05-07T12:03:05.022Z,5.80
2019-05-07T12:05:37.746Z,5.47
2019-05-07T12:08:37.566Z,5.80
2019-05-07T12:11:02.354Z,5.73
2019-05-07T12:13:32.286Z,5.43
2019-05-07T12:16:03.038Z,6.13
2019-05-07T12:18:36.229Z,5.13
2019-05-07T12:21:18.305Z,5.30
2019-05-07T12:23:38.216Z,5.20
2019-05-07T12:26:07.740Z,5.60
2019-05-07T12:28:37.308Z,5.87
2019-05-07T12:31:41.678Z,4.60
2019-05-07T12:34:17.733Z,5.00
2019-05-07T12:36:52.443Z,5.60
2019-05-07T12:39:24.767Z,4.87
2019-05-07T12:41:59.510Z,4.77
2019-05-07T12:44:32.082Z,5.03
2019-05-07T12:47:02.323Z,6.17
2019-05-07T12:49:32.561Z,4.67
2019-05-07T12:52:09.640Z,5.80
2019-05-07T12:54:57.782Z,5.10
2019-05-07T12:57:30.068Z,5.50
2019-05-07T13:00:18.133Z,4.87
2019-05-07T13:03:06.539Z,4.90
2019-05-07T13:05:37.250Z,4.43
2019-05-07T13:08:12.340Z,5.37
2019-05-07T13:10:37.417Z,4.90
2019-05-07T13:13:06.508Z,5.63
2019-05-07T13:15:35.911Z,5.63
2019-05-07T13:18:05.414Z,6.23
2019-05-07T13:20:37.485Z,4.87
2019-05-07T13:23:06.569Z,4.93
2019-05-07T13:25:37.126Z,4.70
2019-05-07T13:28:07.121Z,5.23
2019-05-07T13:30:44.276Z,4.40
2019-05-07T13:33:14.084Z,5.10
2019-05-07T13:35:44.404Z,4.90
2019-05-07T13:38:32.326Z,4.37
2019-05-07T13:41:24.187Z,4.30
2019-05-07T13:44:18.442Z,5.10
2019-05-07T13:46:52.875Z,4.67
2019-05-07T13:49:22.052Z,4.67
2019-05-07T13:52:03.397Z,5.10
2019-05-07T13:54:28.484Z,4.70
2019-05-07T13:56:57.635Z,4.70
2019-05-07T13:59:40.012Z,4.90
2019-05-07T14:02:15.659Z,5.10
2019-05-07T14:04:44.805Z,5.00
2019-05-07T14:07:14.017Z,4.70
2019-05-07T14:12:27.407Z,4.67
2019-05-07T14:15:02.022Z,4.60
2019-05-07T14:17:32.075Z,4.80
2019-05-07T14:20:04.965Z,5.80
2019-05-07T14:22:32.675Z,4.77
2019-05-07T14:25:09.246Z,3.97
2019-05-07T14:27:38.429Z,4.40
2019-05-07T14:30:08.198Z,4.70
2019-05-07T14:32:46.150Z,5.20
2019-05-07T14:35:26.881Z,5.50
2019-05-07T14:38:03.324Z,5.00
2019-05-07T14:40:35.543Z,4.40
2019-05-07T14:43:09.747Z,4.67
2019-05-07T14:45:42.086Z,4.80
2019-05-07T14:48:12.191Z,4.80
2019-05-07T14:50:44.935Z,4.73
2019-05-07T14:53:14.875Z,4.80
2019-05-07T14:55:52.055Z,5.40
2019-05-07T14:58:21.116Z,4.50
2019-05-07T15:00:51.873Z,4.77
2019-05-07T15:03:23.952Z,5.27
2019-05-07T15:06:02.470Z,5.10
2019-05-07T15:08:35.270Z,4.80
2019-05-07T15:11:08.226Z,4.57
2019-05-07T15:13:37.428Z,5.27
2019-05-07T15:16:06.863Z,4.63
2019-05-07T15:19:04.146Z,4.70
2019-05-07T15:21:37.149Z,5.00
2019-05-07T15:24:06.201Z,4.77
2019-05-07T15:26:38.790Z,5.70
2019-05-07T15:29:14.296Z,4.50
2019-05-07T15:32:17.354Z,4.30
2019-05-07T15:34:46.419Z,4.93
2019-05-07T15:37:17.010Z,4.80
2019-05-07T15:39:50.340Z,6.00
2019-05-07T15:42:17.163Z,5.40
2019-05-07T15:44:48.127Z,4.97
2019-05-07T15:47:22.671Z,7.80
2019-05-07T15:49:55.352Z,5.97
2019-05-07T15:52:58.115Z,4.70
2019-05-07T15:55:22.493Z,5.30
2019-05-07T15:57:52.162Z,5.70
2019-05-07T16:00:23.530Z,5.17
2019-05-07T16:03:02.060Z,5.07
2019-05-07T16:05:31.735Z,4.97
2019-05-07T16:08:12.362Z,4.93
2019-05-07T16:10:42.606Z,5.47
2019-05-07T16:13:13.992Z,5.87
2019-05-07T16:15:44.843Z,4.70
2019-05-07T16:18:17.807Z,5.63
2019-05-07T16:20:46.919Z,5.33
2019-05-07T16:23:19.012Z,5.03
2019-05-07T16:25:52.784Z,5.00
2019-05-07T16:28:22.029Z,5.70
2019-05-07T16:30:55.128Z,5.50
2019-05-07T16:33:26.539Z,5.30
2019-05-07T16:35:55.668Z,5.90
2019-05-07T16:38:24.800Z,5.50
2019-05-07T16:40:54.981Z,5.53
2019-05-07T16:43:31.900Z,5.70
2019-05-07T16:46:02.454Z,4.90
2019-05-07T16:48:38.298Z,5.60
2019-05-07T16:51:07.379Z,5.00
2019-05-07T16:53:42.248Z,5.10
2019-05-07T16:56:12.415Z,5.00
2019-05-07T16:58:52.286Z,5.80
2019-05-07T17:01:22.265Z,5.90
2019-05-07T17:03:55.957Z,5.23
2019-05-07T17:06:31.907Z,6.20
2019-05-07T17:09:08.879Z,5.60
2019-05-07T17:11:39.437Z,6.37
2019-05-07T17:14:10.278Z,6.27
2019-05-07T17:16:42.376Z,5.17
2019-05-07T17:19:15.499Z,6.27
2019-05-07T17:21:44.683Z,6.40
2019-05-07T17:24:13.773Z,6.10
2019-05-07T17:26:42.846Z,5.37
2019-05-07T17:29:12.159Z,6.07
2019-05-07T17:31:42.405Z,6.20
2019-05-07T17:34:16.281Z,5.97
2019-05-07T17:36:49.125Z,6.57
2019-05-07T17:39:22.527Z,6.20
2019-05-07T17:41:53.073Z,5.90
2019-05-07T17:44:23.247Z,5.80
2019-05-07T17:46:53.518Z,6.60
2019-05-07T17:49:22.600Z,5.87
2019-05-07T17:51:52.574Z,6.43
2019-05-07T17:54:22.529Z,6.90
2019-05-07T17:56:52.686Z,6.40
2019-05-07T17:59:23.298Z,6.87
2019-05-07T18:02:29.575Z,6.00
2019-05-07T18:05:06.201Z,6.40
2019-05-07T18:07:36.922Z,6.23
2019-05-07T18:10:06.569Z,6.90
2019-05-07T18:12:35.643Z,6.77
2019-05-07T18:15:09.442Z,6.20
2019-05-07T18:17:45.973Z,6.97
2019-05-07T18:20:18.140Z,6.60
2019-05-07T18:22:47.232Z,6.60
2019-05-07T18:25:17.439Z,6.10
2019-05-07T18:27:46.527Z,6.60
2019-05-07T18:30:16.816Z,6.37
2019-05-07T18:32:51.984Z,7.60
2019-05-07T18:35:27.837Z,5.70
2019-05-07T18:38:04.433Z,7.10
2019-05-07T18:40:33.562Z,7.30
2019-05-07T18:43:03.124Z,7.40
2019-05-07T18:45:32.462Z,6.80
2019-05-07T18:48:02.403Z,6.93
2019-05-07T18:50:33.839Z,7.83
2019-05-07T18:53:02.978Z,6.43
2019-05-07T18:55:33.097Z,6.93
2019-05-07T18:58:02.897Z,6.57
2019-05-07T19:00:38.559Z,7.20
2019-05-07T19:03:10.844Z,6.73
2019-05-07T19:05:42.406Z,6.40
2019-05-07T19:08:13.545Z,7.27
2019-05-07T19:10:44.135Z,6.57
2019-05-07T19:13:17.706Z,7.60
2019-05-07T19:15:48.263Z,6.37
2019-05-07T19:18:22.606Z,7.80
2019-05-07T19:20:52.990Z,7.73
2019-05-07T19:23:22.456Z,7.33
2019-05-07T19:25:53.045Z,7.30
2019-05-07T19:28:26.761Z,7.73
2019-05-07T19:30:55.838Z,8.30
2019-05-07T19:33:27.150Z,7.00
2019-05-07T19:35:59.533Z,7.20
2019-05-07T19:38:32.345Z,7.73
2019-05-07T19:41:02.897Z,7.33
2019-05-07T19:43:36.340Z,6.90
2019-05-07T19:46:05.681Z,5.93
2019-05-07T19:48:35.308Z,6.60
2019-05-07T19:51:04.444Z,7.40
2019-05-07T19:53:33.526Z,6.97
2019-05-07T19:56:05.800Z,7.20
2019-05-07T19:58:36.068Z,7.13
2019-05-07T20:01:06.882Z,7.70
2019-05-07T20:03:36.031Z,6.53
2019-05-07T20:06:09.660Z,6.80
2019-05-07T20:08:38.766Z,7.40
2019-05-07T20:11:31.996Z,7.10
2019-05-07T20:14:02.076Z,7.60
2019-05-07T20:16:33.041Z,8.20
2019-05-07T20:19:02.441Z,7.07
2019-05-07T20:21:32.704Z,6.90
2019-05-07T20:24:06.950Z,7.23
2019-05-07T20:26:43.817Z,7.27
2019-05-07T20:29:13.376Z,7.67
2019-05-07T20:31:42.567Z,7.27
2019-05-07T20:34:15.463Z,6.87
2019-05-07T20:36:44.627Z,6.80
2019-05-07T20:39:14.018Z,7.97
2019-05-07T20:41:44.404Z,6.40
2019-05-07T20:44:13.842Z,7.83
2019-05-07T20:46:42.909Z,7.17
2019-05-07T20:49:13.440Z,7.50
2019-05-07T20:51:45.023Z,6.83
2019-05-07T20:54:48.136Z,7.33
2019-05-07T20:57:23.186Z,6.30
2019-05-07T20:59:53.744Z,7.83
2019-05-07T21:02:23.298Z,6.47
2019-05-07T21:04:52.368Z,6.90
2019-05-07T21:07:22.415Z,7.00
2019-05-07T21:09:53.029Z,6.43
2019-05-07T21:12:25.338Z,7.80
2019-05-07T21:14:57.582Z,7.53
2019-05-07T21:17:32.200Z,7.00
2019-05-07T21:20:04.576Z,6.63
2019-05-07T21:22:39.634Z,6.90
2019-05-07T21:25:08.778Z,8.20
2019-05-07T21:27:37.834Z,7.53
2019-05-07T21:30:07.348Z,7.57
2019-05-07T21:32:39.291Z,6.47
2019-05-07T21:35:11.043Z,6.63
2019-05-07T21:37:41.795Z,6.17
2019-05-07T21:40:13.034Z,7.30
2019-05-07T21:42:42.664Z,6.63
2019-05-07T21:45:15.676Z,6.57
2019-05-07T21:47:44.754Z,7.00
2019-05-07T21:50:14.646Z,7.20
2019-05-07T21:52:46.524Z,6.73
2019-05-07T21:55:28.601Z,7.80
2019-05-07T21:58:25.447Z,7.57
2019-05-07T22:01:23.540Z,7.30
2019-05-07T22:03:56.996Z,6.80
2019-05-07T22:06:26.060Z,7.50
2019-05-07T22:08:55.248Z,7.33
2019-05-07T22:11:34.871Z,7.40
2019-05-07T22:14:06.730Z,6.93
2019-05-07T22:16:38.712Z,8.47
2019-05-07T22:19:12.849Z,7.47
2019-05-07T22:21:43.431Z,8.27
2019-05-07T22:24:17.778Z,8.70
2019-05-07T22:26:48.533Z,9.13
2019-05-07T22:29:17.540Z,7.70
2019-05-07T22:32:04.401Z,8.73
2019-05-07T22:34:55.652Z,8.83
2019-05-07T22:37:24.697Z,8.87
2019-05-07T22:39:56.971Z,8.47
2019-05-07T22:42:32.684Z,7.57
2019-05-07T22:45:03.855Z,8.10
2019-05-07T22:47:34.145Z,8.40
2019-05-07T22:50:03.973Z,7.97
2019-05-07T22:52:34.147Z,8.60
2019-05-07T22:55:04.621Z,7.80
2019-05-07T22:57:55.768Z,8.33
2019-05-07T23:00:47.550Z,8.93
2019-05-07T23:03:22.896Z,8.80
2019-05-07T23:05:56.695Z,8.13
2019-05-07T23:08:42.362Z,9.07
2019-05-07T23:11:12.257Z,8.10
2019-05-07T23:13:42.971Z,8.47
2019-05-07T23:16:13.724Z,9.17
2019-05-07T23:18:43.163Z,9.70
2019-05-07T23:21:12.378Z,9.07
2019-05-07T23:23:44.158Z,9.17
2019-05-07T23:26:14.873Z,8.73
2019-05-07T23:28:45.243Z,9.70
2019-05-07T23:31:14.319Z,9.23
2019-05-07T23:33:43.361Z,9.17
2019-05-07T23:36:16.994Z,9.60
2019-05-07T23:38:52.091Z,9.30
2019-05-07T23:41:36.991Z,8.90
2019-05-07T23:44:23.238Z,8.77
2019-05-07T23:46:52.319Z,10.17
2019-05-07T23:49:23.216Z,9.20
2019-05-07T23:51:53.094Z,9.80
2019-05-07T23:54:23.132Z,9.90
2019-05-07T23:57:05.863Z,8.90
2019-05-07T23:59:26.561Z,9.10
